Time;durP1;ratioP1;P1;durP2;ratioP2;P2;SDS_P1;SDS_P2;PMS_P1;PMS_P2;Temp;Humidity;BMP_temperature;BMP_pressure;BME280_temperature;BME280_humidity;BME280_pressure;Samples;Min_cycle;Max_cycle;Signal;HPM_P1;HPM_P2
2022/06/17 00:00:16;;;;;;;6.63;6.07;;;16.10;99.90;;;;;;5033874;28;20178;-66
2022/06/17 00:02:41;;;;;;;7.60;5.90;;;16.10;99.90;;;;;;5036469;28;20285;-65
2022/06/17 00:05:08;;;;;;;7.13;6.53;;;16.10;99.90;;;;;;5053512;28;20701;-65
2022/06/17 00:07:34;;;;;;;7.13;6.40;;;16.00;99.90;;;;;;5050742;28;20187;-66
2022/06/17 00:10:00;;;;;;;7.63;5.97;;;16.00;99.90;;;;;;5034114;28;20187;-65
2022/06/17 00:12:26;;;;;;;6.80;6.20;;;16.00;99.90;;;;;;5034028;28;20207;-65
2022/06/17 00:17:35;;;;;;;6.50;6.00;;;15.90;99.90;;;;;;5052004;28;20203;-66
2022/06/17 00:20:06;;;;;;;7.93;6.13;;;15.80;99.90;;;;;;5033629;28;20172;-65
2022/06/17 00:22:32;;;;;;;6.93;6.43;;;15.80;99.90;;;;;;5033348;28;20229;-65
2022/06/17 00:24:58;;;;;;;7.03;6.43;;;15.80;99.90;;;;;;5033745;28;20175;-65
2022/06/17 00:27:23;;;;;;;8.00;6.20;;;15.80;99.90;;;;;;5033406;28;20526;-66
2022/06/17 00:29:49;;;;;;;7.13;6.40;;;15.80;99.90;;;;;;5034496;28;20194;-65
2022/06/17 00:32:15;;;;;;;7.53;6.93;;;15.80;99.90;;;;;;5033394;28;20287;-65
2022/06/17 00:34:40;;;;;;;6.90;6.40;;;15.70;99.90;;;;;;5049268;28;20264;-66
2022/06/17 00:37:12;;;;;;;6.87;6.33;;;15.60;99.90;;;;;;5053288;28;20668;-66
2022/06/17 00:39:38;;;;;;;7.17;6.53;;;15.60;99.90;;;;;;5037390;28;20179;-65
2022/06/17 00:42:09;;;;;;;6.93;6.53;;;15.60;99.90;;;;;;5033420;28;20486;-65
2022/06/17 00:44:48;;;;;;;7.87;7.27;;;15.60;99.90;;;;;;5047260;28;20618;-66
2022/06/17 00:47:33;;;;;;;7.43;6.87;;;15.50;99.90;;;;;;5053137;28;20542;-67
2022/06/17 00:50:09;;;;;;;7.20;6.70;;;15.50;99.90;;;;;;5035512;28;20195;-65
2022/06/17 00:52:41;;;;;;;8.03;6.87;;;15.50;99.90;;;;;;5046745;28;20324;-66
2022/06/17 00:55:23;;;;;;;7.37;6.87;;;15.50;99.90;;;;;;5052724;28;20728;-66
2022/06/17 00:57:49;;;;;;;7.50;7.00;;;15.40;99.90;;;;;;5037203;28;20175;-65
2022/06/17 01:00:23;;;;;;;7.23;6.57;;;15.40;99.90;;;;;;5032697;28;20163;-67
2022/06/17 01:02:53;;;;;;;6.97;6.50;;;15.40;99.90;;;;;;5047539;28;20170;-65
2022/06/17 01:05:23;;;;;;;6.80;6.37;;;15.40;99.90;;;;;;5052292;28;20420;-65
2022/06/17 01:08:03;;;;;;;7.97;7.20;;;15.30;99.90;;;;;;5038065;28;20258;-65
2022/06/17 01:10:30;;;;;;;7.33;6.70;;;15.30;99.90;;;;;;5032434;28;20249;-66
2022/06/17 01:13:02;;;;;;;7.83;7.23;;;15.30;99.90;;;;;;5047129;28;20536;-66
2022/06/17 01:15:31;;;;;;;8.03;7.30;;;15.30;99.90;;;;;;5051994;28;20206;-66
2022/06/17 01:17:57;;;;;;;7.23;6.57;;;15.30;99.90;;;;;;5037781;28;20176;-65
2022/06/17 01:20:24;;;;;;;8.37;7.77;;;15.20;99.90;;;;;;5044128;28;20185;-66
2022/06/17 01:22:53;;;;;;;7.90;7.27;;;15.20;99.90;;;;;;5052357;28;20258;-66
2022/06/17 01:25:26;;;;;;;7.43;6.80;;;15.20;99.90;;;;;;5040635;28;20194;-66
2022/06/17 01:27:58;;;;;;;7.00;6.40;;;15.20;99.90;;;;;;5032179;28;20190;-66
2022/06/17 01:30:34;;;;;;;8.00;7.20;;;15.20;99.90;;;;;;5042986;28;20225;-65
2022/06/17 01:33:14;;;;;;;7.40;6.80;;;15.30;99.90;;;;;;5052576;28;20588;-65
2022/06/17 01:35:51;;;;;;;7.00;6.50;;;15.30;99.90;;;;;;5039135;28;20569;-65
2022/06/17 01:38:17;;;;;;;8.20;7.40;;;15.30;99.90;;;;;;5031717;28;20168;-64
2022/06/17 01:40:43;;;;;;;7.60;6.87;;;15.30;99.90;;;;;;5044432;28;20768;-65
2022/06/17 01:43:13;;;;;;;7.80;7.20;;;15.30;99.90;;;;;;5050875;28;20181;-64
2022/06/17 01:45:46;;;;;;;7.63;6.93;;;15.30;99.90;;;;;;5039671;28;20738;-65
2022/06/17 01:48:13;;;;;;;10.90;7.37;;;15.30;99.90;;;;;;5042256;28;20200;-64
2022/06/17 01:50:41;;;;;;;6.70;6.30;;;15.20;99.90;;;;;;5049292;28;20240;-64
2022/06/17 01:53:11;;;;;;;8.33;7.63;;;15.20;99.90;;;;;;5051782;28;20178;-65
2022/06/17 01:55:51;;;;;;;7.33;6.73;;;15.20;99.90;;;;;;5047720;28;20203;-64
2022/06/17 01:58:23;;;;;;;7.50;6.80;;;15.30;99.90;;;;;;5031741;28;20216;-66
2022/06/17 02:00:49;;;;;;;6.93;6.33;;;15.20;99.90;;;;;;5035902;28;20187;-65
2022/06/17 02:03:22;;;;;;;7.77;7.17;;;15.20;99.90;;;;;;5051730;28;20178;-65
2022/06/17 02:05:53;;;;;;;7.70;7.20;;;15.20;99.90;;;;;;5036574;28;20175;-65
2022/06/17 02:08:19;;;;;;;7.73;7.03;;;15.20;99.90;;;;;;5031605;28;20167;-64
2022/06/17 02:10:47;;;;;;;9.17;7.33;;;15.10;99.90;;;;;;5045074;28;20218;-65
2022/06/17 02:13:14;;;;;;;8.00;7.37;;;15.10;99.90;;;;;;5051616;28;20384;-64
2022/06/17 02:15:40;;;;;;;8.17;7.50;;;15.00;99.90;;;;;;5038232;28;20206;-65
2022/06/17 02:18:10;;;;;;;8.33;7.67;;;15.00;99.90;;;;;;5031750;28;20175;-65
2022/06/17 02:20:38;;;;;;;7.60;6.87;;;14.90;99.90;;;;;;5042650;28;20686;-65
2022/06/17 02:23:04;;;;;;;7.77;7.13;;;14.80;99.90;;;;;;5051493;28;20638;-65
2022/06/17 02:25:35;;;;;;;8.13;7.43;;;14.80;99.90;;;;;;5044258;28;20183;-66
2022/06/17 02:28:03;;;;;;;8.03;7.27;;;14.70;99.90;;;;;;5017030;28;20176;-65
2022/06/17 02:30:29;;;;;;;8.83;8.13;;;14.70;99.90;;;;;;5011389;28;20294;-66
2022/06/17 02:33:01;;;;;;;8.47;7.73;;;14.60;99.90;;;;;;5011852;28;20457;-65
2022/06/17 02:35:58;;;;;;;8.87;8.13;;;14.60;99.90;;;;;;5027497;28;20271;-66
2022/06/17 02:38:28;;;;;;;8.63;7.90;;;14.50;99.90;;;;;;5051263;28;20217;-66
2022/06/17 02:40:59;;;;;;;9.97;8.40;;;14.50;99.90;;;;;;5049771;28;20209;-66
2022/06/17 02:43:32;;;;;;;8.63;7.87;;;14.40;99.90;;;;;;5050408;28;20484;-64
2022/06/17 02:46:04;;;;;;;8.40;7.67;;;14.40;99.90;;;;;;5039960;28;20215;-66
2022/06/17 02:48:39;;;;;;;9.27;8.37;;;14.40;99.90;;;;;;5032569;28;20176;-67
2022/06/17 02:51:05;;;;;;;8.10;7.50;;;14.30;99.90;;;;;;5046592;28;20205;-66
2022/06/17 02:53:36;;;;;;;9.70;8.97;;;14.30;99.90;;;;;;5054744;28;20650;-65
2022/06/17 02:56:09;;;;;;;9.30;8.70;;;14.20;99.90;;;;;;5044234;28;20218;-66
2022/06/17 02:59:12;;;;;;;9.53;8.93;;;14.10;99.90;;;;;;5034926;28;20605;-66
2022/06/17 03:01:40;;;;;;;9.90;8.97;;;14.10;99.90;;;;;;5049733;28;20623;-65
2022/06/17 03:04:15;;;;;;;9.07;8.27;;;14.10;99.90;;;;;;5054750;28;20186;-65
2022/06/17 03:06:45;;;;;;;8.43;7.63;;;14.10;99.90;;;;;;5054184;28;20288;-66
2022/06/17 03:09:18;;;;;;;8.47;7.77;;;14.10;99.90;;;;;;5044175;28;20549;-66
2022/06/17 03:11:49;;;;;;;8.77;7.83;;;14.10;99.90;;;;;;5034673;28;20245;-65
2022/06/17 03:14:15;;;;;;;10.37;8.53;;;14.10;99.90;;;;;;5035452;28;20176;-65
2022/06/17 03:16:42;;;;;;;8.57;7.90;;;14.10;99.90;;;;;;5034561;28;20176;-66
2022/06/17 03:19:08;;;;;;;8.47;7.67;;;14.20;99.90;;;;;;5043578;28;20607;-65
2022/06/17 03:21:35;;;;;;;8.00;7.30;;;14.20;99.90;;;;;;5053698;28;20680;-65
2022/06/17 03:24:04;;;;;;;8.17;7.43;;;14.20;99.90;;;;;;5046567;28;20178;-67
2022/06/17 03:26:35;;;;;;;7.90;7.20;;;14.20;99.90;;;;;;5034446;28;20250;-65
2022/06/17 03:29:03;;;;;;;8.33;7.60;;;14.30;99.90;;;;;;5041185;28;20209;-66
2022/06/17 03:31:52;;;;;;;9.10;8.37;;;14.30;99.90;;;;;;5054649;28;20206;-65
2022/06/17 03:34:30;;;;;;;7.90;7.33;;;14.40;99.90;;;;;;5045194;28;20205;-65
2022/06/17 03:37:08;;;;;;;8.17;7.47;;;14.40;99.90;;;;;;5042092;28;20174;-65
2022/06/17 03:39:39;;;;;;;8.60;7.80;;;14.40;99.90;;;;;;5054124;28;20167;-65
2022/06/17 03:42:19;;;;;;;7.67;7.17;;;14.40;99.90;;;;;;5045281;28;20290;-65
2022/06/17 03:44:58;;;;;;;7.90;7.20;;;14.40;99.90;;;;;;5034247;28;20501;-65
2022/06/17 03:47:53;;;;;;;7.70;7.10;;;14.50;99.90;;;;;;5044565;28;20174;-65
2022/06/17 03:50:33;;;;;;;8.00;7.30;;;14.50;99.90;;;;;;5041896;28;20581;-65
2022/06/17 03:53:30;;;;;;;8.20;7.60;;;14.40;99.90;;;;;;5032857;28;20261;-64
2022/06/17 03:56:31;;;;;;;8.97;8.20;;;14.40;99.90;;;;;;5048785;28;20206;-65
2022/06/17 03:59:00;;;;;;;8.60;7.77;;;14.40;99.90;;;;;;5053628;28;20163;-65
2022/06/17 04:01:39;;;;;;;8.43;7.67;;;14.40;99.90;;;;;;5052532;28;20325;-65
2022/06/17 04:04:34;;;;;;;8.13;7.53;;;14.40;99.90;;;;;;5052526;28;20205;-64
2022/06/17 04:07:00;;;;;;;9.77;8.43;;;14.40;99.90;;;;;;5032606;28;20190;-66
2022/06/17 04:09:29;;;;;;;9.00;8.17;;;14.50;99.90;;;;;;5036462;28;20175;-66
2022/06/17 04:12:01;;;;;;;8.93;8.30;;;14.50;99.90;;;;;;5053563;28;20194;-64
2022/06/17 04:14:45;;;;;;;15.57;8.97;;;14.60;99.90;;;;;;5050208;28;20687;-64
2022/06/17 04:17:27;;;;;;;9.43;8.60;;;14.60;99.90;;;;;;5033645;28;20250;-65
2022/06/17 04:20:16;;;;;;;8.97;8.07;;;14.70;99.90;;;;;;5038987;28;20179;-65
2022/06/17 04:22:46;;;;;;;8.50;7.67;;;14.80;99.90;;;;;;5053280;28;20502;-65
2022/06/17 04:25:18;;;;;;;9.40;8.20;;;15.10;99.90;;;;;;5045162;28;20222;-64
2022/06/17 04:27:57;;;;;;;8.77;8.07;;;15.30;99.90;;;;;;5033377;28;20190;-64
2022/06/17 04:35:16;;;;;;;9.00;7.67;;;16.30;99.90;;;;;;5051338;28;20297;-67
2022/06/17 04:37:47;;;;;;;7.87;7.17;;;16.50;99.90;;;;;;5058284;28;20257;-67
2022/06/17 04:40:25;;;;;;;8.17;7.47;;;16.80;99.90;;;;;;5073063;28;20545;-67
2022/06/17 04:42:53;;;;;;;8.10;7.40;;;17.00;99.90;;;;;;5052750;28;20257;-68
2022/06/17 04:45:22;;;;;;;10.10;7.90;;;17.20;99.90;;;;;;5052729;28;20228;-67
2022/06/17 04:47:48;;;;;;;8.50;7.80;;;17.60;99.90;;;;;;5052448;28;20209;-67
2022/06/17 04:50:17;;;;;;;10.23;7.87;;;17.90;99.90;;;;;;5052415;28;20195;-67
2022/06/17 04:52:46;;;;;;;9.00;8.13;;;18.30;99.90;;;;;;5052340;28;20195;-67
2022/06/17 04:55:20;;;;;;;7.40;6.80;;;18.60;99.90;;;;;;5052430;28;20210;-67
2022/06/17 04:57:47;;;;;;;8.17;7.47;;;18.80;99.90;;;;;;5052366;28;20266;-67
2022/06/17 05:00:20;;;;;;;10.33;8.17;;;19.00;99.90;;;;;;5052838;28;20204;-67
2022/06/17 05:02:46;;;;;;;8.50;7.63;;;19.10;99.90;;;;;;5052354;28;20197;-67
2022/06/17 05:05:19;;;;;;;9.70;7.80;;;19.20;99.90;;;;;;5052358;28;20171;-67
2022/06/17 05:07:48;;;;;;;8.47;7.67;;;19.30;99.90;;;;;;5052119;28;20270;-67
2022/06/17 05:10:22;;;;;;;10.10;8.60;;;19.40;99.90;;;;;;5052463;28;20305;-67
2022/06/17 05:13:12;;;;;;;8.00;7.20;;;19.50;99.90;;;;;;5052034;28;20163;-67
2022/06/17 05:15:38;;;;;;;8.80;8.00;;;19.60;99.90;;;;;;5052053;28;20234;-67
2022/06/17 05:18:04;;;;;;;8.97;7.70;;;19.70;99.90;;;;;;5052022;28;20210;-67
2022/06/17 05:20:30;;;;;;;11.77;8.00;;;19.70;99.90;;;;;;5052219;28;20163;-67
2022/06/17 05:23:03;;;;;;;8.80;8.00;;;19.70;99.90;;;;;;5051952;28;20257;-67
2022/06/17 05:25:36;;;;;;;9.20;8.32;;;19.70;99.90;;;;;;5052066;28;20183;-67
2022/06/17 05:28:03;;;;;;;8.52;7.82;;;19.70;99.90;;;;;;5051951;28;20531;-67
2022/06/17 05:30:35;;;;;;;10.30;9.30;;;19.70;99.90;;;;;;5051744;28;20171;-67
2022/06/17 05:33:01;;;;;;;8.88;8.07;;;19.90;99.90;;;;;;5051848;28;20221;-67
2022/06/17 05:35:26;;;;;;;9.20;8.40;;;19.90;99.90;;;;;;5051904;28;20226;-67
2022/06/17 05:37:53;;;;;;;9.43;8.52;;;20.10;99.90;;;;;;5051918;28;20707;-67
2022/06/17 05:40:19;;;;;;;8.05;7.53;;;20.20;99.90;;;;;;5051919;28;20224;-67
2022/06/17 05:42:45;;;;;;;8.32;7.53;;;20.40;99.90;;;;;;5051548;28;20570;-67
2022/06/17 05:45:20;;;;;;;8.13;7.43;;;20.70;99.90;;;;;;5051640;28;20566;-67
2022/06/17 05:47:46;;;;;;;8.43;7.75;;;21.10;99.90;;;;;;5051527;28;20255;-67
2022/06/17 05:50:13;;;;;;;7.47;6.70;;;21.40;99.90;;;;;;5051027;28;20220;-67
2022/06/17 05:52:52;;;;;;;6.88;6.30;;;21.70;99.90;;;;;;5048601;28;20845;-67
2022/06/17 05:55:19;;;;;;;7.00;6.30;;;22.10;99.90;;;;;;5031767;28;20308;-67
2022/06/17 05:57:45;;;;;;;7.13;6.20;;;22.60;99.90;;;;;;5037743;28;20171;-67
2022/06/17 06:00:12;;;;;;;6.53;5.85;;;22.80;99.90;;;;;;5050410;28;20182;-67
2022/06/17 06:02:38;;;;;;;6.93;6.30;;;23.00;99.90;;;;;;5051100;28;20209;-67
2022/06/17 06:05:04;;;;;;;6.65;6.05;;;23.10;99.90;;;;;;5051412;28;20540;-67
2022/06/17 06:07:30;;;;;;;6.40;5.78;;;23.00;99.90;;;;;;5051249;28;20252;-67
2022/06/17 06:09:55;;;;;;;6.60;6.05;;;22.80;99.90;;;;;;5051255;28;20281;-67
2022/06/17 06:12:21;;;;;;;6.75;6.25;;;22.70;99.90;;;;;;5036166;28;20219;-67
2022/06/17 06:14:47;;;;;;;7.45;6.60;;;22.30;99.90;;;;;;5031022;28;20203;-67
2022/06/17 06:17:12;;;;;;;7.68;6.38;;;22.20;99.90;;;;;;5031536;28;20289;-67
2022/06/17 06:19:38;;;;;;;7.75;6.95;;;22.00;99.90;;;;;;5031165;28;20175;-67
2022/06/17 06:22:04;;;;;;;6.57;5.97;;;21.90;99.90;;;;;;5036670;28;20190;-67
2022/06/17 06:24:30;;;;;;;8.35;5.53;;;22.10;99.90;;;;;;5056007;28;20186;-67
2022/06/17 06:26:55;;;;;;;5.88;5.38;;;22.40;99.90;;;;;;5048530;28;20298;-67
2022/06/17 06:29:21;;;;;;;5.72;5.20;;;22.70;99.90;;;;;;5047778;28;20179;-68
2022/06/17 06:31:48;;;;;;;5.35;4.85;;;23.10;99.90;;;;;;5044415;28;20191;-68
2022/06/17 06:34:15;;;;;;;6.47;5.80;;;23.40;99.90;;;;;;5036191;28;20245;-66
2022/06/17 06:36:42;;;;;;;5.45;4.97;;;23.60;99.90;;;;;;5037774;28;20196;-67
2022/06/17 06:39:07;;;;;;;5.50;5.00;;;23.90;99.90;;;;;;5044125;28;20282;-67
2022/06/17 06:41:33;;;;;;;5.15;4.75;;;24.00;99.90;;;;;;5057679;28;20712;-67
2022/06/17 06:43:59;;;;;;;4.97;4.47;;;24.20;99.90;;;;;;5055856;28;20171;-67
2022/06/17 06:46:25;;;;;;;5.10;4.45;;;24.50;99.90;;;;;;5057516;28;20182;-68
2022/06/17 06:48:51;;;;;;;4.88;4.43;;;24.80;99.90;;;;;;5054213;28;20190;-68
2022/06/17 06:51:18;;;;;;;7.25;4.93;;;25.10;99.90;;;;;;5057443;28;20190;-68
2022/06/17 06:53:44;;;;;;;5.20;4.70;;;25.50;99.90;;;;;;5057366;28;20587;-68
2022/06/17 06:56:10;;;;;;;5.78;4.75;;;25.90;99.90;;;;;;5057721;28;20356;-68
2022/06/17 06:58:36;;;;;;;4.85;4.45;;;26.10;99.90;;;;;;5057531;28;20540;-66
2022/06/17 07:01:01;;;;;;;4.53;4.13;;;25.90;99.90;;;;;;5057042;28;20697;-66
2022/06/17 07:03:28;;;;;;;6.70;4.13;;;26.00;99.90;;;;;;5057312;28;20163;-66
2022/06/17 07:05:57;;;;;;;4.13;3.75;;;26.20;99.90;;;;;;5057536;28;20182;-65
2022/06/17 07:08:25;;;;;;;4.45;4.05;;;26.30;99.90;;;;;;5057663;28;20202;-65
2022/06/17 07:10:52;;;;;;;4.40;4.00;;;26.70;99.90;;;;;;5057293;28;20760;-65
2022/06/17 07:13:19;;;;;;;4.40;3.20;;;27.20;99.90;;;;;;5057244;28;20186;-66
2022/06/17 07:15:46;;;;;;;8.35;3.72;;;27.30;99.90;;;;;;5056812;28;20684;-66
2022/06/17 07:18:27;;;;;;;6.35;4.18;;;27.60;99.90;;;;;;5057505;28;20162;-65
2022/06/17 07:20:59;;;;;;;3.95;3.70;;;27.70;99.90;;;;;;5057027;28;20225;-64
2022/06/17 07:23:29;;;;;;;4.88;3.70;;;27.60;99.90;;;;;;5057284;28;20166;-65
2022/06/17 07:25:59;;;;;;;4.72;4.32;;;27.70;99.90;;;;;;5057118;28;20182;-67
2022/06/17 07:28:26;;;;;;;4.68;4.18;;;27.90;99.90;;;;;;5057356;28;20638;-66
2022/06/17 07:30:54;;;;;;;4.10;3.80;;;28.00;99.90;;;;;;5057028;28;20198;-67
2022/06/17 07:33:22;;;;;;;4.30;4.00;;;27.80;99.90;;;;;;5057388;28;20186;-68
2022/06/17 07:35:48;;;;;;;6.00;4.10;;;27.60;99.90;;;;;;5053995;28;20674;-66
2022/06/17 07:41:08;;;;;;;4.60;4.20;;;27.50;99.90;;;;;;5053998;28;20229;-68
2022/06/17 07:43:34;;;;;;;5.88;3.75;;;27.20;99.90;;;;;;5053752;28;20182;-67
2022/06/17 07:46:01;;;;;;;4.40;4.00;;;26.80;99.90;;;;;;5054128;28;20351;-67
2022/06/17 07:48:27;;;;;;;4.22;3.92;;;26.60;99.90;;;;;;5052002;28;20575;-67
2022/06/17 07:50:58;;;;;;;4.80;4.40;;;26.60;99.90;;;;;;5053543;28;20615;-68
2022/06/17 07:53:25;;;;;;;4.32;4.00;;;27.10;99.90;;;;;;5053555;28;20173;-65
2022/06/17 07:55:51;;;;;;;4.38;3.60;;;27.80;99.90;;;;;;5053541;28;20217;-65
2022/06/17 07:58:17;;;;;;;4.28;3.88;;;28.20;99.90;;;;;;5053685;28;20224;-66
2022/06/17 08:00:44;;;;;;;6.13;3.60;;;28.60;99.90;;;;;;5053348;28;20171;-66
2022/06/17 08:03:12;;;;;;;7.07;3.53;;;28.50;99.90;;;;;;5053549;28;20239;-66
2022/06/17 08:05:40;;;;;;;3.78;3.47;;;28.60;99.90;;;;;;5053154;28;20661;-66
2022/06/17 08:08:08;;;;;;;5.75;4.28;;;28.70;99.90;;;;;;5053756;28;20305;-66
2022/06/17 08:10:35;;;;;;;4.85;3.97;;;28.90;99.90;;;;;;5051828;28;20551;-66
2022/06/17 08:13:02;;;;;;;4.75;3.97;;;29.20;99.90;;;;;;5045820;28;20188;-66
2022/06/17 08:15:28;;;;;;;4.10;3.80;;;29.50;99.90;;;;;;5030892;28;20199;-66
2022/06/17 08:17:54;;;;;;;5.50;3.53;;;29.40;99.90;;;;;;5031926;28;20634;-65
2022/06/17 08:20:23;;;;;;;4.25;3.92;;;29.10;99.90;;;;;;5033560;28;20167;-65
2022/06/17 08:22:49;;;;;;;4.32;3.92;;;29.10;99.90;;;;;;5033542;28;20681;-65
2022/06/17 08:25:16;;;;;;;5.97;4.25;;;29.20;99.90;;;;;;5032624;28;20642;-65
2022/06/17 08:27:54;;;;;;;3.20;2.92;;;29.40;99.90;;;;;;5032366;28;20211;-66
2022/06/17 08:30:23;;;;;;;4.15;3.80;;;29.90;99.90;;;;;;5032095;28;20182;-66
2022/06/17 08:32:51;;;;;;;4.30;3.83;;;30.30;99.90;;;;;;5033494;28;20574;-66
2022/06/17 08:35:32;;;;;;;4.32;3.65;;;30.40;99.90;;;;;;5032907;28;20203;-66
2022/06/17 08:38:14;;;;;;;3.80;3.50;;;30.10;99.90;;;;;;5033345;28;20176;-66
2022/06/17 08:40:56;;;;;;;4.20;3.72;;;30.00;99.90;;;;;;5033032;28;20229;-66
2022/06/17 08:43:57;;;;;;;4.65;3.40;;;30.10;99.90;;;;;;5033132;28;20653;-66
2022/06/17 08:46:29;;;;;;;3.88;3.38;;;30.20;99.90;;;;;;5031260;28;20179;-66
2022/06/17 08:49:15;;;;;;;3.45;3.25;;;30.60;99.90;;;;;;5032550;28;20195;-65
2022/06/17 08:51:59;;;;;;;4.45;3.42;;;30.60;99.90;;;;;;5032960;28;20187;-66
2022/06/17 08:54:45;;;;;;;3.83;3.53;;;30.50;99.90;;;;;;5032675;28;20225;-66
2022/06/17 08:57:19;;;;;;;3.83;3.53;;;30.30;99.90;;;;;;5032855;28;20175;-66
2022/06/17 09:00:05;;;;;;;4.38;3.97;;;30.00;99.90;;;;;;5031054;28;20668;-66
2022/06/17 09:02:36;;;;;;;7.82;3.70;;;29.90;99.90;;;;;;5032628;28;20191;-66
2022/06/17 09:05:24;;;;;;;3.67;3.38;;;29.80;99.90;;;;;;5032419;28;20171;-66
2022/06/17 09:08:24;;;;;;;3.53;3.33;;;30.00;99.90;;;;;;5032686;28;20177;-66
2022/06/17 09:11:28;;;;;;;5.05;3.35;;;30.10;99.90;;;;;;5031516;28;20674;-66
2022/06/17 09:14:24;;;;;;;3.78;3.10;;;30.20;99.60;;;;;;5032658;28;20175;-66
2022/06/17 09:16:58;;;;;;;4.25;3.85;;;30.20;98.10;;;;;;5032581;28;20591;-66
2022/06/17 09:19:29;;;;;;;3.40;3.10;;;30.10;98.40;;;;;;5032447;28;20171;-65
2022/06/17 09:22:00;;;;;;;3.78;3.50;;;30.00;98.40;;;;;;5032337;28;20659;-66
2022/06/17 09:24:30;;;;;;;3.45;3.22;;;29.90;99.90;;;;;;5030893;28;20587;-66
2022/06/17 09:27:03;;;;;;;3.63;3.33;;;30.00;98.40;;;;;;5030618;28;20183;-66
2022/06/17 09:29:28;;;;;;;3.60;3.30;;;30.00;98.10;;;;;;5032317;28;20171;-66
2022/06/17 09:32:12;;;;;;;4.57;3.40;;;30.00;98.40;;;;;;5032169;28;20196;-66
2022/06/17 09:34:53;;;;;;;3.47;3.17;;;29.90;97.80;;;;;;5031662;28;20178;-66
2022/06/17 09:37:33;;;;;;;6.97;3.80;;;29.90;99.50;;;;;;5032200;28;20164;-66
2022/06/17 09:40:25;;;;;;;3.67;3.38;;;30.00;97.50;;;;;;5032224;28;20172;-66
2022/06/17 09:42:54;;;;;;;4.00;3.70;;;30.30;97.20;;;;;;5021556;28;20184;-66
2022/06/17 09:45:44;;;;;;;4.82;3.50;;;30.20;98.00;;;;;;5031768;28;20175;-66
2022/06/17 09:48:22;;;;;;;3.28;2.97;;;30.50;98.10;;;;;;5030787;28;20175;-66
2022/06/17 09:50:50;;;;;;;3.55;3.08;;;31.00;96.20;;;;;;5030556;28;20248;-66
2022/06/17 09:53:30;;;;;;;2.80;2.60;;;31.10;95.50;;;;;;5031905;28;20175;-65
2022/06/17 09:56:05;;;;;;;3.90;3.13;;;31.40;96.90;;;;;;5031856;28;20209;-66
2022/06/17 09:58:45;;;;;;;4.85;3.00;;;31.50;95.90;;;;;;5030890;28;20617;-66
2022/06/17 10:01:12;;;;;;;4.03;3.45;;;31.80;94.60;;;;;;5031642;28;20201;-66
2022/06/17 10:03:39;;;;;;;3.30;3.10;;;31.80;95.50;;;;;;5031478;28;20654;-66
2022/06/17 10:06:32;;;;;;;4.20;3.63;;;31.80;95.50;;;;;;5041785;28;20198;-66
2022/06/17 10:09:06;;;;;;;5.45;2.92;;;31.90;95.40;;;;;;5036090;28;20183;-66
2022/06/17 10:11:54;;;;;;;2.90;2.70;;;32.50;93.40;;;;;;5031679;28;20256;-66
2022/06/17 10:14:25;;;;;;;2.92;2.72;;;32.50;92.60;;;;;;5035152;28;20367;-66
2022/06/17 10:20:18;;;;;;;3.47;2.90;;;32.40;92.60;;;;;;5050062;28;20185;-66
2022/06/17 10:23:08;;;;;;;3.22;3.03;;;32.40;91.30;;;;;;5051210;28;20212;-66
2022/06/17 10:26:03;;;;;;;4.70;3.90;;;32.20;90.30;;;;;;5049403;28;20185;-66
2022/06/17 10:28:38;;;;;;;3.65;3.00;;;32.20;91.30;;;;;;5037843;28;20213;-67
2022/06/17 10:31:12;;;;;;;3.85;3.10;;;32.00;91.60;;;;;;5048479;28;20198;-67
2022/06/17 10:33:39;;;;;;;3.13;2.83;;;31.90;92.80;;;;;;5011922;28;20192;-67
2022/06/17 10:36:06;;;;;;;3.50;3.20;;;32.10;91.50;;;;;;5014272;28;20207;-67
2022/06/17 10:38:37;;;;;;;4.30;2.80;;;32.30;92.30;;;;;;5050040;28;20189;-67
2022/06/17 10:41:02;;;;;;;3.10;2.90;;;32.40;90.80;;;;;;5049739;28;20203;-67
2022/06/17 10:43:43;;;;;;;3.40;3.17;;;32.70;92.60;;;;;;5051187;28;20537;-67
2022/06/17 10:46:36;;;;;;;2.72;2.53;;;33.00;86.90;;;;;;5050924;28;20193;-67
2022/06/17 10:49:12;;;;;;;3.42;2.70;;;33.30;87.50;;;;;;5049927;28;20595;-67
2022/06/17 10:51:39;;;;;;;3.17;2.80;;;33.30;87.40;;;;;;5049077;28;20340;-67
2022/06/17 10:54:13;;;;;;;3.47;3.00;;;33.80;86.60;;;;;;5050974;28;20195;-68
2022/06/17 10:56:43;;;;;;;3.33;3.03;;;33.90;84.90;;;;;;5050962;28;20670;-66
2022/06/17 10:59:11;;;;;;;3.17;2.88;;;33.90;83.60;;;;;;5051344;28;20410;-66
2022/06/17 11:01:45;;;;;;;3.15;2.85;;;33.90;85.60;;;;;;5050977;28;20237;-67
2022/06/17 11:04:28;;;;;;;3.83;2.50;;;34.00;82.20;;;;;;5051434;28;20638;-67
2022/06/17 11:07:13;;;;;;;3.17;2.97;;;34.20;76.20;;;;;;5011708;28;20229;-67
2022/06/17 11:09:46;;;;;;;4.68;3.22;;;34.20;81.20;;;;;;5016365;28;20223;-67
2022/06/17 11:12:22;;;;;;;3.55;2.67;;;34.00;78.20;;;;;;5055159;28;20209;-67
2022/06/17 11:15:00;;;;;;;4.70;2.58;;;34.10;82.50;;;;;;5054186;28;20198;-67
2022/06/17 11:17:42;;;;;;;2.92;2.72;;;34.40;79.60;;;;;;5054724;28;20170;-67
2022/06/17 11:20:19;;;;;;;4.57;2.60;;;34.80;78.60;;;;;;5053228;28;20256;-66
2022/06/17 11:22:50;;;;;;;3.28;2.70;;;34.70;76.80;;;;;;5054499;28;20196;-67
2022/06/17 11:25:34;;;;;;;4.20;2.85;;;34.60;76.40;;;;;;5052861;28;20183;-67
2022/06/17 11:28:12;;;;;;;6.57;3.03;;;34.50;79.40;;;;;;5054517;28;20684;-67
2022/06/17 11:31:00;;;;;;;3.38;2.40;;;34.60;78.00;;;;;;5054095;28;20181;-67
2022/06/17 11:33:35;;;;;;;3.13;2.83;;;34.50;77.40;;;;;;5053790;28;20267;-67
2022/06/17 11:36:04;;;;;;;3.20;2.90;;;34.70;72.60;;;;;;5044268;28;20681;-67
2022/06/17 11:38:32;;;;;;;2.78;2.58;;;34.80;80.00;;;;;;5047929;28;20190;-67
2022/06/17 11:41:00;;;;;;;5.50;2.80;;;34.90;73.70;;;;;;5053844;28;20594;-66
2022/06/17 11:43:29;;;;;;;5.13;2.58;;;34.80;76.30;;;;;;5052491;28;20261;-67
2022/06/17 11:45:55;;;;;;;3.83;2.58;;;34.90;78.00;;;;;;5052933;28;20265;-67
2022/06/17 11:48:22;;;;;;;4.07;2.70;;;35.00;76.70;;;;;;5053039;28;20612;-67
2022/06/17 11:51:07;;;;;;;3.15;2.85;;;34.90;75.40;;;;;;5054066;28;20195;-67
2022/06/17 11:53:48;;;;;;;2.67;2.47;;;35.00;73.50;;;;;;5053336;28;20661;-67
2022/06/17 11:56:39;;;;;;;2.47;2.30;;;35.20;72.10;;;;;;5054033;28;20311;-66
2022/06/17 11:59:23;;;;;;;3.58;2.50;;;35.50;72.40;;;;;;5037749;28;20242;-67
2022/06/17 12:01:55;;;;;;;3.75;2.80;;;35.70;71.80;;;;;;5033693;28;20200;-66
2022/06/17 12:04:44;;;;;;;2.53;2.33;;;35.60;71.10;;;;;;5051411;28;20729;-66
2022/06/17 12:07:38;;;;;;;2.38;2.22;;;36.10;67.90;;;;;;5053646;28;20186;-66
2022/06/17 12:10:12;;;;;;;2.88;2.67;;;36.50;69.30;;;;;;5013966;28;20204;-67
2022/06/17 12:12:38;;;;;;;2.50;2.40;;;36.30;67.60;;;;;;5034474;28;20206;-66
2022/06/17 12:15:26;;;;;;;2.42;2.33;;;36.20;68.00;;;;;;5052798;28;20199;-65
2022/06/17 12:17:55;;;;;;;2.70;2.50;;;36.10;65.70;;;;;;5053254;28;20713;-66
2022/06/17 12:20:30;;;;;;;2.80;2.55;;;35.50;62.60;;;;;;5052997;28;20183;-66
2022/06/17 12:23:05;;;;;;;2.42;2.22;;;35.10;63.80;;;;;;5052953;28;20212;-66
2022/06/17 12:25:43;;;;;;;2.35;2.15;;;35.20;64.70;;;;;;5052844;28;20174;-66
2022/06/17 12:28:35;;;;;;;2.63;2.42;;;35.40;69.40;;;;;;5052794;28;20206;-66
2022/06/17 12:31:31;;;;;;;3.28;2.53;;;35.10;65.30;;;;;;5046800;28;20287;-66
2022/06/17 12:34:08;;;;;;;2.70;2.50;;;34.90;64.70;;;;;;5032831;28;20249;-66
2022/06/17 12:36:55;;;;;;;3.33;2.97;;;34.70;64.10;;;;;;5037248;28;20206;-66
2022/06/17 12:39:32;;;;;;;3.45;3.00;;;34.50;65.10;;;;;;5052994;28;20179;-66
2022/06/17 12:42:19;;;;;;;3.13;2.80;;;34.60;66.50;;;;;;5052701;28;20277;-66
2022/06/17 12:45:02;;;;;;;2.95;2.75;;;34.70;64.80;;;;;;5052768;28;20602;-67
2022/06/17 12:47:50;;;;;;;2.88;2.67;;;34.70;64.20;;;;;;5052461;28;20285;-68
2022/06/17 12:53:21;;;;;;;3.08;2.40;;;34.90;70.00;;;;;;5037862;28;20187;-67
2022/06/17 12:56:14;;;;;;;2.63;2.47;;;35.10;65.20;;;;;;5032416;28;20203;-67
2022/06/17 12:58:40;;;;;;;2.75;2.55;;;34.90;64.30;;;;;;5032577;28;20199;-67
2022/06/17 13:01:11;;;;;;;2.90;2.70;;;34.70;66.90;;;;;;5032399;28;20203;-67
2022/06/17 13:04:12;;;;;;;3.13;2.92;;;34.70;65.30;;;;;;5031021;28;20270;-67
2022/06/17 13:06:49;;;;;;;2.85;2.65;;;34.70;64.90;;;;;;5032216;28;20262;-67
2022/06/17 13:09:33;;;;;;;2.70;2.50;;;34.50;65.50;;;;;;5031531;28;20171;-67
2022/06/17 13:12:23;;;;;;;2.55;2.45;;;34.60;69.60;;;;;;5032326;28;20195;-68
2022/06/17 13:15:01;;;;;;;3.25;2.95;;;34.80;68.60;;;;;;5031826;28;20516;-67
2022/06/17 13:17:35;;;;;;;3.00;2.80;;;35.00;65.60;;;;;;5032235;28;20171;-67
2022/06/17 13:20:10;;;;;;;2.88;2.67;;;35.10;68.30;;;;;;5032394;28;20333;-67
2022/06/17 13:22:55;;;;;;;2.90;2.70;;;35.30;65.30;;;;;;5031928;28;20269;-67
2022/06/17 13:25:22;;;;;;;2.40;2.30;;;35.60;66.10;;;;;;5031869;28;20221;-68
2022/06/17 13:28:05;;;;;;;3.03;2.83;;;35.90;66.60;;;;;;5031971;28;20205;-67
2022/06/17 13:30:36;;;;;;;2.80;2.60;;;35.80;66.70;;;;;;5031939;28;20183;-68
2022/06/17 13:33:17;;;;;;;4.10;2.28;;;35.80;66.90;;;;;;5031766;28;20199;-68